createdAt,value
2018-09-24T00:02:03.787Z,99957.23
2018-09-24T00:04:38.574Z,99958.80
2018-09-24T00:07:13.345Z,99970.68
2018-09-24T00:09:48.057Z,99975.00
2018-09-24T00:12:22.566Z,99981.20
2018-09-24T00:14:57.123Z,99980.59
2018-09-24T00:17:31.724Z,99984.88
2018-09-24T00:20:06.592Z,99989.70
2018-09-24T00:22:40.984Z,99993.67
2018-09-24T00:25:15.654Z,100005.55
2018-09-24T00:27:50.291Z,100009.04
2018-09-24T00:30:24.864Z,100007.40
2018-09-24T00:32:59.469Z,100007.91
2018-09-24T00:35:34.103Z,100016.47
2018-09-24T00:38:08.884Z,100012.89
2018-09-24T00:40:43.359Z,100020.14
2018-09-24T00:43:17.865Z,100022.25
2018-09-24T00:45:52.328Z,100017.37
2018-09-24T00:48:27.181Z,100023.84
2018-09-24T00:51:01.720Z,100025.95
2018-09-24T00:53:36.172Z,100027.27
2018-09-24T00:56:10.805Z,100039.17
2018-09-24T00:58:45.240Z,100049.14
2018-09-24T01:01:19.852Z,100055.43
2018-09-24T01:03:54.394Z,100067.41
2018-09-24T01:06:29.049Z,100066.41
2018-09-24T01:09:04.021Z,100064.37
2018-09-24T01:11:38.798Z,100077.16
2018-09-24T01:14:13.363Z,100081.25
2018-09-24T01:16:47.870Z,100087.54
2018-09-24T01:19:22.568Z,100095.65
2018-09-24T01:21:57.188Z,100098.35
2018-09-24T01:24:31.865Z,100104.87
2018-09-24T01:27:06.544Z,100108.13
2018-09-24T01:29:41.142Z,100115.16
2018-09-24T01:32:15.680Z,100114.88
2018-09-24T01:34:50.361Z,100112.45
2018-09-24T01:37:24.867Z,100119.52
2018-09-24T01:39:59.884Z,100125.17
2018-09-24T01:42:34.560Z,100136.28
2018-09-24T01:45:08.862Z,100136.28
2018-09-24T01:47:43.491Z,100143.56
2018-09-24T01:50:17.726Z,100145.69
2018-09-24T01:52:52.105Z,100145.14
2018-09-24T01:55:26.797Z,100158.93
2018-09-24T01:58:01.151Z,100165.70
2018-09-24T02:00:35.552Z,100166.54
2018-09-24T02:03:09.940Z,100166.00
2018-09-24T02:05:44.415Z,100166.80
2018-09-24T02:08:18.750Z,100168.41
2018-09-24T02:10:53.124Z,100164.63
2018-09-24T02:13:27.578Z,100166.25
2018-09-24T02:16:01.980Z,100168.86
2018-09-24T02:18:36.391Z,100175.67
2018-09-24T02:21:10.676Z,100172.50
2018-09-24T02:23:45.440Z,100180.59
2018-09-24T02:26:19.640Z,100186.27
2018-09-24T02:28:54.371Z,100179.45
2018-09-24T02:31:28.992Z,100188.55
2018-09-24T02:34:03.263Z,100187.20
2018-09-24T02:36:37.665Z,100186.61
2018-09-24T02:39:12.651Z,100188.94
2018-09-24T02:41:48.424Z,100198.94
2018-09-24T02:44:24.257Z,100195.80
2018-09-24T02:46:58.592Z,100202.48
2018-09-24T02:49:34.591Z,100194.25
2018-09-24T02:52:08.851Z,100206.31
2018-09-24T02:54:43.128Z,100216.80
2018-09-24T02:57:17.448Z,100219.98
2018-09-24T02:59:51.835Z,100216.97
2018-09-24T03:02:26.296Z,100221.84
2018-09-24T03:05:00.883Z,100232.11
2018-09-24T03:07:35.831Z,100242.37
2018-09-24T03:10:10.108Z,100246.14
2018-09-24T03:13:00.479Z,100249.06
2018-09-24T03:15:38.307Z,100253.33
2018-09-24T03:18:12.708Z,100252.70
2018-09-24T03:23:50.367Z,100254.92
2018-09-24T03:26:24.986Z,100257.23
2018-09-24T03:28:59.363Z,100260.11
2018-09-24T03:31:36.785Z,100264.13
2018-09-24T03:34:14.385Z,100263.45
2018-09-24T03:36:49.589Z,100264.52
2018-09-24T03:39:24.289Z,100266.08
2018-09-24T03:41:59.002Z,100264.94
2018-09-24T03:44:33.565Z,100266.98
2018-09-24T03:47:08.197Z,100269.31
2018-09-24T03:49:42.680Z,100274.36
2018-09-24T03:52:17.517Z,100275.30
2018-09-24T03:54:52.597Z,100279.50
2018-09-24T03:57:27.189Z,100284.50
2018-09-24T04:00:01.664Z,100289.36
2018-09-24T04:02:36.253Z,100298.75
2018-09-24T04:05:16.106Z,100302.50
2018-09-24T04:07:55.968Z,100308.14
2018-09-24T04:10:35.761Z,100311.81
2018-09-24T04:13:15.825Z,100323.42
2018-09-24T04:15:55.824Z,100322.59
2018-09-24T04:18:35.544Z,100321.98
2018-09-24T04:21:15.413Z,100326.22
2018-09-24T04:23:55.257Z,100335.08
2018-09-24T04:26:35.246Z,100335.56
2018-09-24T04:29:15.100Z,100347.11
2018-09-24T04:31:55.223Z,100341.95
2018-09-24T04:34:35.099Z,100349.70
2018-09-24T04:37:14.982Z,100346.44
2018-09-24T04:39:54.764Z,100347.39
2018-09-24T04:42:34.647Z,100357.27
2018-09-24T04:45:14.534Z,100361.31
2018-09-24T04:47:54.268Z,100356.83
2018-09-24T04:50:34.233Z,100350.67
2018-09-24T04:53:14.267Z,100359.81
2018-09-24T04:55:54.093Z,100359.20
2018-09-24T04:58:33.937Z,100358.33
2018-09-24T05:01:13.848Z,100366.94
2018-09-24T05:03:53.581Z,100373.14
2018-09-24T05:06:33.413Z,100376.84
2018-09-24T05:09:13.824Z,100385.93
2018-09-24T05:11:53.665Z,100381.95
2018-09-24T05:14:33.614Z,100390.50
2018-09-24T05:17:13.352Z,100392.09
2018-09-24T05:19:53.330Z,100395.26
2018-09-24T05:22:33.201Z,100397.08
2018-09-24T05:25:13.137Z,100400.54
2018-09-24T05:27:53.069Z,100397.31
2018-09-24T05:30:33.036Z,100402.47
2018-09-24T05:33:12.922Z,100414.88
2018-09-24T05:35:52.981Z,100415.45
2018-09-24T05:38:32.951Z,100427.68
2018-09-24T05:41:12.867Z,100431.53
2018-09-24T05:43:52.669Z,100428.21
2018-09-24T05:46:32.631Z,100436.20
2018-09-24T05:49:12.356Z,100435.55
2018-09-24T05:51:52.280Z,100443.48
2018-09-24T05:54:32.137Z,100444.64
2018-09-24T05:57:12.137Z,100453.69
2018-09-24T05:59:52.180Z,100454.63
2018-09-24T06:02:31.985Z,100458.00
2018-09-24T06:05:11.869Z,100465.17
2018-09-24T06:07:51.789Z,100469.84
2018-09-24T06:10:31.688Z,100479.17
2018-09-24T06:13:11.886Z,100484.80
2018-09-24T06:15:51.826Z,100487.55
2018-09-24T06:18:31.727Z,100489.61
2018-09-24T06:21:11.900Z,100491.34
2018-09-24T06:23:51.809Z,100493.80
2018-09-24T06:26:32.133Z,100491.71
2018-09-24T06:29:12.027Z,100487.00
2018-09-24T06:31:52.185Z,100494.20
2018-09-24T06:37:38.227Z,100506.86
2018-09-24T06:40:18.053Z,100507.23
2018-09-24T06:42:57.988Z,100504.63
2018-09-24T06:45:39.811Z,100494.09
2018-09-24T06:51:23.135Z,100496.22
2018-09-24T06:54:02.904Z,100503.02
2018-09-24T06:56:42.739Z,100508.85
2018-09-24T06:59:22.676Z,100504.98
2018-09-24T07:02:02.500Z,100507.69
2018-09-24T07:04:42.309Z,100507.48
2018-09-24T07:07:22.152Z,100512.59
2018-09-24T07:10:02.005Z,100520.12
2018-09-24T07:12:41.684Z,100524.56
2018-09-24T07:15:21.532Z,100532.13
2018-09-24T07:18:01.413Z,100539.86
2018-09-24T07:20:41.284Z,100542.14
2018-09-24T07:23:21.227Z,100546.66
2018-09-24T07:26:01.152Z,100553.66
2018-09-24T07:28:41.125Z,100557.86
2018-09-24T07:31:21.032Z,100566.69
2018-09-24T07:34:00.916Z,100566.63
2018-09-24T07:36:40.816Z,100574.72
2018-09-24T07:39:20.688Z,100579.83
2018-09-24T07:42:00.700Z,100582.41
2018-09-24T07:44:40.587Z,100584.58
2018-09-24T07:47:20.216Z,100584.17
2018-09-24T07:50:00.284Z,100588.08
2018-09-24T07:52:40.196Z,100603.30
2018-09-24T07:55:20.365Z,100605.56
2018-09-24T07:58:07.103Z,100612.69
2018-09-24T08:00:46.888Z,100631.06
2018-09-24T08:03:26.789Z,100637.88
2018-09-24T08:06:06.707Z,100637.04
2018-09-24T08:08:46.556Z,100637.59
2018-09-24T08:11:26.348Z,100639.57
2018-09-24T08:14:06.180Z,100646.09
2018-09-24T08:16:46.154Z,100659.23
2018-09-24T08:19:25.918Z,100657.53
2018-09-24T08:22:05.944Z,100660.87
2018-09-24T08:24:46.044Z,100661.87
2018-09-24T08:27:25.923Z,100661.95
2018-09-24T08:30:05.972Z,100670.40
2018-09-24T08:32:45.761Z,100668.17
2018-09-24T08:35:25.884Z,100670.41
2018-09-24T08:38:05.687Z,100673.62
2018-09-24T08:40:45.607Z,100680.90
2018-09-24T08:43:25.668Z,100684.77
2018-09-24T08:46:05.516Z,100676.61
2018-09-24T08:48:45.417Z,100684.50
2018-09-24T08:51:25.269Z,100682.64
2018-09-24T08:54:05.257Z,100686.75
2018-09-24T08:56:45.121Z,100685.59
2018-09-24T08:59:25.243Z,100684.95
2018-09-24T09:02:05.046Z,100688.98
2018-09-24T09:04:45.008Z,100689.01
2018-09-24T09:07:25.400Z,100681.04
2018-09-24T09:10:05.269Z,100680.70
2018-09-24T09:12:45.133Z,100679.86
2018-09-24T09:15:25.173Z,100686.88
2018-09-24T09:18:05.082Z,100695.52
2018-09-24T09:20:44.823Z,100697.28
2018-09-24T09:23:24.712Z,100697.30
2018-09-24T09:26:04.604Z,100696.86
2018-09-24T09:28:44.436Z,100692.32
2018-09-24T09:31:24.343Z,100695.84
2018-09-24T09:34:04.133Z,100697.54
2018-09-24T09:36:44.069Z,100708.88
2018-09-24T09:39:23.973Z,100707.52
2018-09-24T09:42:04.187Z,100712.11
2018-09-24T09:44:43.856Z,100713.28
2018-09-24T09:47:24.092Z,100705.42
2018-09-24T09:50:03.861Z,100717.87
2018-09-24T09:52:43.688Z,100714.67
2018-09-24T09:55:23.682Z,100724.16
2018-09-24T09:58:03.604Z,100709.31
2018-09-24T10:00:43.574Z,100709.54
2018-09-24T10:03:23.378Z,100712.20
2018-09-24T10:06:03.261Z,100715.25
2018-09-24T10:08:43.514Z,100713.31
2018-09-24T10:11:23.533Z,100711.63
2018-09-24T10:14:05.918Z,100712.39
2018-09-24T10:16:51.805Z,100718.45
2018-09-24T10:19:32.923Z,100712.05
2018-09-24T10:22:12.977Z,100719.08
2018-09-24T10:24:52.813Z,100720.91
2018-09-24T10:27:32.662Z,100723.06
2018-09-24T10:30:12.665Z,100718.25
2018-09-24T10:32:52.477Z,100725.39
2018-09-24T10:35:32.421Z,100730.01
2018-09-24T10:38:12.473Z,100718.83
2018-09-24T10:40:52.348Z,100723.41
2018-09-24T10:43:35.833Z,100715.93
2018-09-24T10:46:15.614Z,100714.53
2018-09-24T10:48:55.621Z,100707.53
2018-09-24T10:51:35.433Z,100704.73
2018-09-24T10:54:17.082Z,100713.53
2018-09-24T10:56:56.713Z,100710.52
2018-09-24T10:59:37.200Z,100713.33
2018-09-24T11:02:17.054Z,100710.67
2018-09-24T11:04:57.223Z,100718.58
2018-09-24T11:07:37.110Z,100719.91
2018-09-24T11:10:17.103Z,100723.18
2018-09-24T11:12:57.167Z,100724.83
2018-09-24T11:15:37.041Z,100727.73
2018-09-24T11:18:17.040Z,100731.35
2018-09-24T11:20:57.173Z,100725.63
2018-09-24T11:23:37.072Z,100727.50
2018-09-24T11:28:57.164Z,100718.45
2018-09-24T11:31:42.078Z,100718.05
2018-09-24T11:34:25.420Z,100728.23
2018-09-24T11:37:18.080Z,100733.48
2018-09-24T11:39:57.923Z,100736.48
2018-09-24T11:42:37.934Z,100735.87
2018-09-24T11:45:18.371Z,100733.64
2018-09-24T11:50:57.149Z,100736.52
2018-09-24T11:53:37.133Z,100734.41
2018-09-24T11:56:17.093Z,100736.38
2018-09-24T11:58:57.222Z,100732.41
2018-09-24T12:01:37.044Z,100739.23
2018-09-24T12:04:17.132Z,100733.75
2018-09-24T12:06:57.029Z,100731.54
2018-09-24T12:09:36.925Z,100721.17
2018-09-24T12:12:16.707Z,100717.23
2018-09-24T12:14:56.532Z,100713.88
2018-09-24T12:17:36.423Z,100716.99
2018-09-24T12:20:16.396Z,100710.69
2018-09-24T12:22:56.225Z,100719.90
2018-09-24T12:25:36.106Z,100718.80
2018-09-24T12:28:15.973Z,100714.89
2018-09-24T12:30:55.741Z,100713.55
2018-09-24T12:33:35.536Z,100719.52
2018-09-24T12:36:15.404Z,100719.86
2018-09-24T12:38:55.368Z,100724.08
2018-09-24T12:41:35.158Z,100745.20
2018-09-24T12:44:15.014Z,100748.53
2018-09-24T12:46:54.978Z,100747.16
2018-09-24T12:49:34.939Z,100746.07
2018-09-24T12:52:14.962Z,100740.11
2018-09-24T12:54:54.798Z,100741.73
2018-09-24T12:57:34.741Z,100739.02
2018-09-24T13:00:14.784Z,100747.19
2018-09-24T13:02:54.838Z,100743.64
2018-09-24T13:05:34.683Z,100744.19
2018-09-24T13:08:14.573Z,100738.92
2018-09-24T13:10:54.224Z,100736.44
2018-09-24T13:13:34.105Z,100730.91
2018-09-24T13:16:14.046Z,100727.91
2018-09-24T13:18:53.873Z,100721.91
2018-09-24T13:21:33.745Z,100724.83
2018-09-24T13:24:13.605Z,100718.63
2018-09-24T13:26:53.455Z,100721.56
2018-09-24T13:29:33.298Z,100719.38
2018-09-24T13:32:13.225Z,100721.25
2018-09-24T13:34:53.229Z,100719.48
2018-09-24T13:37:33.188Z,100718.53
2018-09-24T13:40:13.054Z,100718.77
2018-09-24T13:42:52.849Z,100721.23
2018-09-24T13:45:32.814Z,100714.78
2018-09-24T13:48:12.745Z,100721.25
2018-09-24T13:50:52.728Z,100714.53
2018-09-24T13:53:32.761Z,100721.53
2018-09-24T13:56:12.585Z,100718.69
2018-09-24T13:58:52.541Z,100719.44
2018-09-24T14:01:32.994Z,100715.67
2018-09-24T14:04:12.948Z,100730.27
2018-09-24T14:06:52.865Z,100725.91
2018-09-24T14:09:32.664Z,100720.12
2018-09-24T14:12:12.580Z,100717.12
2018-09-24T14:14:52.456Z,100717.14
2018-09-24T14:17:32.635Z,100723.20
2018-09-24T14:20:12.578Z,100713.07
2018-09-24T14:22:52.525Z,100706.30
2018-09-24T14:25:32.410Z,100708.87
2018-09-24T14:28:12.586Z,100715.36
2018-09-24T14:30:52.479Z,100710.30
2018-09-24T14:33:32.519Z,100715.13
2018-09-24T14:36:12.701Z,100713.80
2018-09-24T14:38:52.544Z,100716.84
2018-09-24T14:41:32.457Z,100723.66
2018-09-24T14:44:12.164Z,100723.97
2018-09-24T14:46:52.051Z,100724.27
2018-09-24T14:49:31.973Z,100724.55
2018-09-24T14:52:11.948Z,100725.88
2018-09-24T14:54:52.083Z,100727.30
2018-09-24T14:57:31.851Z,100731.55
2018-09-24T15:00:11.822Z,100724.56
2018-09-24T15:02:51.745Z,100720.22
2018-09-24T15:05:31.533Z,100722.84
2018-09-24T15:08:11.381Z,100722.11
2018-09-24T15:10:51.277Z,100713.34
2018-09-24T15:13:31.101Z,100708.69
2018-09-24T15:16:10.921Z,100715.65
2018-09-24T15:18:51.147Z,100714.80
2018-09-24T15:21:31.013Z,100717.93
2018-09-24T15:24:10.937Z,100716.08
2018-09-24T15:26:50.776Z,100719.24
2018-09-24T15:29:30.569Z,100729.89
2018-09-24T15:32:10.526Z,100727.23
2018-09-24T15:34:50.557Z,100726.09
2018-09-24T15:37:30.396Z,100730.82
2018-09-24T15:40:10.461Z,100727.38
2018-09-24T15:42:50.248Z,100736.44
2018-09-24T15:45:30.449Z,100729.63
2018-09-24T15:48:11.361Z,100732.11
2018-09-24T15:50:51.652Z,100732.66
2018-09-24T15:56:31.291Z,100738.95
2018-09-24T15:59:11.349Z,100764.04
2018-09-24T16:01:51.148Z,100769.24
2018-09-24T16:04:30.993Z,100775.16
2018-09-24T16:07:10.753Z,100763.64
2018-09-24T16:09:50.732Z,100757.95
2018-09-24T16:12:30.680Z,100754.74
2018-09-24T16:15:11.441Z,100752.06
2018-09-24T16:17:51.564Z,100764.81
2018-09-24T16:20:31.459Z,100761.81
2018-09-24T16:23:11.536Z,100759.10
2018-09-24T16:25:51.513Z,100759.43
2018-09-24T16:28:31.189Z,100764.87
2018-09-24T16:31:11.311Z,100771.92
2018-09-24T16:33:51.171Z,100770.86
2018-09-24T16:36:31.076Z,100767.56
2018-09-24T16:39:13.436Z,100772.51
2018-09-24T16:41:53.287Z,100776.56
2018-09-24T16:44:33.240Z,100771.58
2018-09-24T16:47:13.201Z,100776.73
2018-09-24T16:49:53.085Z,100780.77
2018-09-24T16:52:32.956Z,100780.45
2018-09-24T16:55:12.753Z,100777.42
2018-09-24T16:57:52.660Z,100783.67
2018-09-24T17:00:32.516Z,100791.85
2018-09-24T17:03:12.468Z,100785.57
2018-09-24T17:05:52.367Z,100790.49
2018-09-24T17:08:32.204Z,100795.39
2018-09-24T17:11:12.103Z,100796.23
2018-09-24T17:13:51.993Z,100798.38
2018-09-24T17:16:32.134Z,100807.88
2018-09-24T17:19:11.886Z,100808.09
2018-09-24T17:21:51.647Z,100806.11
2018-09-24T17:24:31.620Z,100818.85
2018-09-24T17:27:11.424Z,100819.06
2018-09-24T17:29:51.247Z,100821.39
2018-09-24T17:32:31.045Z,100816.97
2018-09-24T17:35:11.477Z,100821.20
2018-09-24T17:37:51.085Z,100831.45
2018-09-24T17:40:31.064Z,100828.16
2018-09-24T17:43:10.952Z,100839.70
2018-09-24T17:45:50.906Z,100837.16
2018-09-24T17:48:30.721Z,100841.19
2018-09-24T17:51:10.453Z,100845.52
2018-09-24T17:53:50.297Z,100848.94
2018-09-24T17:56:30.193Z,100851.06
2018-09-24T17:59:10.025Z,100852.33
2018-09-24T18:01:49.839Z,100858.52
2018-09-24T18:04:42.408Z,100859.55
2018-09-24T18:07:22.793Z,100865.53
2018-09-24T18:10:02.609Z,100866.07
2018-09-24T18:12:42.641Z,100868.39
2018-09-24T18:15:22.461Z,100869.62
2018-09-24T18:18:02.292Z,100871.77
2018-09-24T18:20:42.253Z,100874.39
2018-09-24T18:23:22.233Z,100881.98
2018-09-24T18:26:02.241Z,100882.02
2018-09-24T18:28:42.119Z,100884.16
2018-09-24T18:31:22.602Z,100881.36
2018-09-24T18:34:02.565Z,100887.59
2018-09-24T18:36:42.436Z,100884.80
2018-09-24T18:39:22.338Z,100891.98
2018-09-24T18:42:02.238Z,100892.55
2018-09-24T18:44:42.052Z,100895.27
2018-09-24T18:47:21.901Z,100900.46
2018-09-24T18:50:02.018Z,100901.31
2018-09-24T18:52:41.893Z,100910.74
2018-09-24T18:55:21.774Z,100918.13
2018-09-24T18:58:01.738Z,100914.09
2018-09-24T19:00:41.665Z,100924.45
2018-09-24T19:03:21.638Z,100920.83
2018-09-24T19:06:01.629Z,100918.40
2018-09-24T19:08:41.565Z,100928.74
2018-09-24T19:11:27.793Z,100932.88
2018-09-24T19:14:06.239Z,100931.86
2018-09-24T19:16:46.229Z,100937.68
2018-09-24T19:19:26.213Z,100940.53
2018-09-24T19:22:06.013Z,100945.02
2018-09-24T19:24:45.953Z,100942.25
2018-09-24T19:27:25.796Z,100942.91
2018-09-24T19:30:05.565Z,100948.45
2018-09-24T19:32:45.545Z,100954.02
2018-09-24T19:35:25.515Z,100956.20
2018-09-24T19:38:05.545Z,100960.52
2018-09-24T19:40:45.449Z,100963.27
2018-09-24T19:43:25.337Z,100964.91
2018-09-24T19:46:05.261Z,100962.47
2018-09-24T19:48:45.126Z,100958.94
2018-09-24T19:51:24.985Z,100963.22
2018-09-24T19:54:04.708Z,100965.22
2018-09-24T19:56:44.602Z,100966.19
2018-09-24T19:59:24.429Z,100961.58
2018-09-24T20:02:04.350Z,100966.08
2018-09-24T20:04:44.485Z,100970.02
2018-09-24T20:07:24.677Z,100976.72
2018-09-24T20:10:04.443Z,100967.38
2018-09-24T20:12:44.373Z,100976.97
2018-09-24T20:15:24.278Z,100987.69
2018-09-24T20:18:04.482Z,100984.90
2018-09-24T20:20:44.508Z,100983.75
2018-09-24T20:23:24.471Z,100983.46
2018-09-24T20:26:04.362Z,100985.84
2018-09-24T20:28:44.235Z,100986.86
2018-09-24T20:31:24.101Z,100991.95
2018-09-24T20:34:15.940Z,100986.73
2018-09-24T20:36:55.857Z,100987.30
2018-09-24T20:39:36.561Z,100987.80
2018-09-24T20:42:16.447Z,100991.72
2018-09-24T20:44:56.281Z,100989.42
2018-09-24T20:47:36.115Z,100984.61
2018-09-24T20:50:21.752Z,101000.20
2018-09-24T20:53:13.601Z,101010.16
2018-09-24T20:56:03.181Z,101009.09
2018-09-24T20:58:43.401Z,101013.73
2018-09-24T21:01:23.494Z,101015.15
2018-09-24T21:04:03.448Z,101019.41
2018-09-24T21:06:43.368Z,101022.02
2018-09-24T21:09:23.348Z,101025.92
2018-09-24T21:12:03.682Z,101034.27
2018-09-24T21:14:43.553Z,101030.03
2018-09-24T21:17:23.494Z,101030.85
2018-09-24T21:20:03.351Z,101037.27
2018-09-24T21:22:43.221Z,101038.76
2018-09-24T21:25:23.035Z,101043.02
2018-09-24T21:28:02.865Z,101043.45
2018-09-24T21:30:42.755Z,101038.04
2018-09-24T21:33:22.709Z,101044.75
2018-09-24T21:36:02.709Z,101049.54
2018-09-24T21:38:42.565Z,101057.45
2018-09-24T21:41:22.452Z,101052.64
2018-09-24T21:44:02.266Z,101057.99
2018-09-24T21:46:42.321Z,101055.64
2018-09-24T21:49:22.012Z,101062.05
2018-09-24T21:52:01.948Z,101066.05
2018-09-24T21:54:41.857Z,101068.69
2018-09-24T21:57:21.668Z,101078.97
2018-09-24T22:00:01.584Z,101086.39
2018-09-24T22:02:41.545Z,101080.75
2018-09-24T22:05:21.289Z,101085.27
2018-09-24T22:08:01.240Z,101084.09
2018-09-24T22:10:41.184Z,101085.62
2018-09-24T22:13:21.038Z,101088.26
2018-09-24T22:16:00.917Z,101079.33
2018-09-24T22:18:40.739Z,101075.39
2018-09-24T22:21:20.665Z,101078.32
2018-09-24T22:24:00.437Z,101078.78
2018-09-24T22:26:40.297Z,101078.78
2018-09-24T22:29:20.129Z,101071.97
2018-09-24T22:32:00.063Z,101070.91
2018-09-24T22:34:39.942Z,101076.98
2018-09-24T22:37:19.885Z,101078.20
2018-09-24T22:39:59.864Z,101078.02
2018-09-24T22:42:39.716Z,101082.59
2018-09-24T22:45:19.732Z,101081.94
2018-09-24T22:47:59.680Z,101086.02
2018-09-24T22:50:39.552Z,101080.31
2018-09-24T22:53:19.475Z,101088.94
2018-09-24T22:55:59.340Z,101099.53
2018-09-24T22:58:39.324Z,101094.81
2018-09-24T23:01:19.093Z,101093.86
2018-09-24T23:03:59.058Z,101102.18
2018-09-24T23:06:38.846Z,101099.61
2018-09-24T23:09:18.721Z,101105.45
2018-09-24T23:11:58.613Z,101095.72
2018-09-24T23:14:38.499Z,101098.64
2018-09-24T23:17:18.526Z,101091.68
2018-09-24T23:19:58.563Z,101097.09
2018-09-24T23:22:38.341Z,101096.63
2018-09-24T23:25:18.372Z,101097.98
2018-09-24T23:27:58.360Z,101097.84
2018-09-24T23:30:38.582Z,101095.95
2018-09-24T23:33:18.461Z,101094.37
2018-09-24T23:35:58.286Z,101099.25
2018-09-24T23:38:38.224Z,101094.69
2018-09-24T23:41:18.088Z,101095.21
2018-09-24T23:43:58.042Z,101094.73
2018-09-24T23:46:37.873Z,101088.52
2018-09-24T23:49:17.834Z,101086.05
2018-09-24T23:51:57.649Z,101091.30
2018-09-24T23:54:37.433Z,101088.45
2018-09-24T23:57:17.345Z,101095.41
2018-09-24T23:59:57.505Z,101083.43
